Time;durP1;ratioP1;P1;durP2;ratioP2;P2;SDS_P1;SDS_P2;PMS_P1;PMS_P2;Temp;Humidity;BMP_temperature;BMP_pressure;BME280_temperature;BME280_humidity;BME280_pressure;Samples;Min_cycle;Max_cycle;Signal;HPM_P1;HPM_P2
2021/04/12 00:00:08;;;;;;;7.20;3.40;;;;;;;;;;5049695;28;20659;-67
2021/04/12 00:02:38;;;;;;;3.40;3.10;;;;;;;;;;5054812;28;20712;-68
2021/04/12 00:05:13;;;;;;;7.53;3.03;;;;;;;;;;5055031;28;20250;-66
2021/04/12 00:07:41;;;;;;;4.13;3.22;;;;;;;;;;5054714;28;20273;-68
2021/04/12 00:10:12;;;;;;;3.95;2.88;;;;;;;;;;5054608;28;20238;-67
2021/04/12 00:12:41;;;;;;;3.58;3.03;;;;;;;;;;5054927;28;20627;-68
2021/04/12 00:15:14;;;;;;;7.50;3.70;;;;;;;;;;5054485;28;20681;-68
2021/04/12 00:17:43;;;;;;;3.78;3.45;;;;;;;;;;5055167;28;20267;-67
2021/04/12 00:20:14;;;;;;;4.82;3.00;;;;;;;;;;5054424;28;20289;-68
2021/04/12 00:22:44;;;;;;;5.00;3.15;;;;;;;;;;5054586;28;20287;-67
2021/04/12 00:25:13;;;;;;;5.15;3.17;;;;;;;;;;5054919;28;20302;-67
2021/04/12 00:27:42;;;;;;;4.88;2.70;;;;;;;;;;5054619;28;20282;-67
2021/04/12 00:30:16;;;;;;;5.97;3.28;;;;;;;;;;5054748;28;20290;-67
2021/04/12 00:32:46;;;;;;;5.03;3.20;;;;;;;;;;5055322;28;20214;-66
2021/04/12 00:35:14;;;;;;;3.22;2.92;;;;;;;;;;5054364;28;20610;-68
2021/04/12 00:37:44;;;;;;;7.22;3.33;;;;;;;;;;5054098;28;20357;-67
2021/04/12 00:40:15;;;;;;;4.97;3.00;;;;;;;;;;5054987;28;20554;-67
2021/04/12 00:43:00;;;;;;;3.47;3.15;;;;;;;;;;5053865;28;20282;-67
2021/04/12 00:45:37;;;;;;;3.97;3.25;;;;;;;;;;5054097;28;20253;-67
2021/04/12 00:48:14;;;;;;;11.50;3.80;;;;;;;;;;5054325;28;20210;-67
2021/04/12 00:50:45;;;;;;;3.92;3.20;;;;;;;;;;5054369;28;20534;-67
2021/04/12 00:53:30;;;;;;;6.00;3.70;;;;;;;;;;5053821;28;20184;-67
2021/04/12 00:55:58;;;;;;;7.78;3.40;;;;;;;;;;5054614;28;20207;-67
2021/04/12 00:58:31;;;;;;;3.90;3.45;;;;;;;;;;5054370;28;20234;-68
2021/04/12 01:01:06;;;;;;;10.30;3.55;;;;;;;;;;5054158;28;20262;-67
2021/04/12 01:03:43;;;;;;;5.10;3.10;;;;;;;;;;5053994;28;20273;-67
2021/04/12 01:06:11;;;;;;;4.28;3.15;;;;;;;;;;5054350;28;20187;-68
2021/04/12 01:08:49;;;;;;;8.80;3.05;;;;;;;;;;5054440;28;20277;-67
2021/04/12 01:11:32;;;;;;;6.45;3.63;;;;;;;;;;5054683;28;20636;-67
2021/04/12 01:14:07;;;;;;;7.55;3.70;;;;;;;;;;5053579;28;20214;-67
2021/04/12 01:16:40;;;;;;;4.45;3.13;;;;;;;;;;5054144;28;20294;-67
2021/04/12 01:19:16;;;;;;;3.67;3.33;;;;;;;;;;5053544;28;20625;-67
2021/04/12 01:22:11;;;;;;;7.07;3.22;;;;;;;;;;5054311;28;20191;-67
2021/04/12 01:25:04;;;;;;;5.65;3.75;;;;;;;;;;5054241;28;20206;-67
2021/04/12 01:27:49;;;;;;;6.18;3.20;;;;;;;;;;5054148;28;20199;-67
2021/04/12 01:30:35;;;;;;;5.85;3.50;;;;;;;;;;5053296;28;20199;-67
2021/04/12 01:33:26;;;;;;;5.55;3.00;;;;;;;;;;5053405;28;20274;-67
2021/04/12 01:36:05;;;;;;;3.60;3.30;;;;;;;;;;5032853;28;20310;-66
2021/04/12 01:38:36;;;;;;;10.98;3.67;;;;;;;;;;5054028;28;20563;-67
2021/04/12 01:41:09;;;;;;;3.65;3.35;;;;;;;;;;5054006;28;20625;-67
2021/04/12 01:43:40;;;;;;;5.00;3.35;;;;;;;;;;5054259;28;20199;-67
2021/04/12 01:46:11;;;;;;;3.90;3.38;;;;;;;;;;5053991;28;20744;-67
2021/04/12 01:48:47;;;;;;;3.70;3.40;;;;;;;;;;5053748;28;20273;-67
2021/04/12 01:51:29;;;;;;;4.50;3.45;;;;;;;;;;5053582;28;20626;-67
2021/04/12 01:54:12;;;;;;;6.85;4.20;;;;;;;;;;5053095;28;20699;-67
2021/04/12 01:56:59;;;;;;;4.22;3.83;;;;;;;;;;5057449;28;20639;-67
2021/04/12 01:59:34;;;;;;;4.60;3.50;;;;;;;;;;5058013;28;20273;-69
2021/04/12 02:02:19;;;;;;;4.57;2.95;;;;;;;;;;5057829;28;20274;-68
2021/04/12 02:04:57;;;;;;;5.50;4.05;;;;;;;;;;5057429;28;20205;-68
2021/04/12 02:07:33;;;;;;;3.92;3.60;;;;;;;;;;5057613;28;20187;-67
2021/04/12 02:10:05;;;;;;;5.15;3.70;;;;;;;;;;5058106;28;20598;-67
2021/04/12 02:12:42;;;;;;;4.68;3.35;;;;;;;;;;5057299;28;20704;-67
2021/04/12 02:15:18;;;;;;;7.70;3.90;;;;;;;;;;5057183;28;20274;-67
2021/04/12 02:17:52;;;;;;;6.18;4.38;;;;;;;;;;5057328;28;20544;-67
2021/04/12 02:20:21;;;;;;;4.15;3.75;;;;;;;;;;5057261;28;20277;-67
2021/04/12 02:22:56;;;;;;;5.88;3.97;;;;;;;;;;5056988;28;20281;-67
2021/04/12 02:25:31;;;;;;;5.90;4.28;;;;;;;;;;5056669;28;20278;-67
2021/04/12 02:28:03;;;;;;;8.38;4.07;;;;;;;;;;5057646;28;20617;-67
2021/04/12 02:30:35;;;;;;;4.07;3.72;;;;;;;;;;5057278;28;20190;-67
2021/04/12 02:33:08;;;;;;;7.15;3.83;;;;;;;;;;5056566;28;20686;-68
2021/04/12 02:35:39;;;;;;;5.38;4.43;;;;;;;;;;5058431;28;20301;-67
2021/04/12 02:38:26;;;;;;;10.98;5.10;;;;;;;;;;5059635;28;20625;-67
2021/04/12 02:41:00;;;;;;;5.72;4.15;;;;;;;;;;5058956;28;20187;-66
2021/04/12 02:43:37;;;;;;;6.43;4.20;;;;;;;;;;5056931;28;20239;-66
2021/04/12 02:46:14;;;;;;;6.05;4.00;;;;;;;;;;5057025;28;20265;-67
2021/04/12 02:48:43;;;;;;;5.25;3.72;;;;;;;;;;5058203;28;20274;-69
2021/04/12 02:51:18;;;;;;;5.93;4.05;;;;;;;;;;5057929;28;20282;-67
2021/04/12 02:53:55;;;;;;;6.38;4.05;;;;;;;;;;5057392;28;20183;-67
2021/04/12 02:56:32;;;;;;;5.85;3.70;;;;;;;;;;5056141;28;20213;-68
2021/04/12 02:59:05;;;;;;;4.32;3.83;;;;;;;;;;5056117;28;20184;-67
2021/04/12 03:01:43;;;;;;;3.92;3.47;;;;;;;;;;5056311;28;20283;-66
2021/04/12 03:04:23;;;;;;;3.97;3.58;;;;;;;;;;5056004;28;20281;-66
2021/04/12 03:07:02;;;;;;;3.85;3.53;;;;;;;;;;5056447;28;20191;-67
2021/04/12 03:09:51;;;;;;;5.45;3.30;;;;;;;;;;5056437;28;20225;-66
2021/04/12 03:12:28;;;;;;;7.30;4.25;;;;;;;;;;5056069;28;20238;-66
2021/04/12 03:15:01;;;;;;;4.97;4.47;;;;;;;;;;5055780;28;20240;-67
2021/04/12 03:17:42;;;;;;;6.22;4.57;;;;;;;;;;5055944;28;20239;-67
2021/04/12 03:20:31;;;;;;;4.47;3.92;;;;;;;;;;5055975;28;20274;-67
2021/04/12 03:23:08;;;;;;;8.02;4.68;;;;;;;;;;5056179;28;20187;-67
2021/04/12 03:25:41;;;;;;;7.60;5.07;;;;;;;;;;5056403;28;20219;-66
2021/04/12 03:28:25;;;;;;;6.13;4.40;;;;;;;;;;5056564;28;20270;-67
2021/04/12 03:31:07;;;;;;;6.80;4.28;;;;;;;;;;5056178;28;20226;-67
2021/04/12 03:33:37;;;;;;;7.38;4.32;;;;;;;;;;5054955;28;20736;-67
2021/04/12 03:36:10;;;;;;;7.93;4.13;;;;;;;;;;5055487;28;20731;-67
2021/04/12 03:38:44;;;;;;;5.90;4.53;;;;;;;;;;5055995;28;20195;-67
2021/04/12 03:41:29;;;;;;;6.22;4.65;;;;;;;;;;5055754;28;20252;-66
2021/04/12 03:44:09;;;;;;;6.55;4.68;;;;;;;;;;5055512;28;20281;-66
2021/04/12 03:46:46;;;;;;;6.32;5.22;;;;;;;;;;5055538;28;20258;-66
2021/04/12 03:49:40;;;;;;;7.75;5.07;;;;;;;;;;5055936;28;20269;-67
2021/04/12 03:52:25;;;;;;;11.32;4.88;;;;;;;;;;5055877;28;20266;-67
2021/04/12 03:55:12;;;;;;;6.47;5.15;;;;;;;;;;5055473;28;20628;-67
2021/04/12 03:57:52;;;;;;;7.15;5.10;;;;;;;;;;5045696;28;20691;-68
2021/04/12 04:00:37;;;;;;;13.27;6.05;;;;;;;;;;5055356;28;20293;-67
2021/04/12 04:03:17;;;;;;;10.10;4.35;;;;;;;;;;5055093;28;20286;-66
2021/04/12 04:05:47;;;;;;;6.72;6.03;;;;;;;;;;5055473;28;20618;-66
2021/04/12 04:08:40;;;;;;;10.63;6.63;;;;;;;;;;5055023;28;20307;-67
2021/04/12 04:11:17;;;;;;;7.40;5.70;;;;;;;;;;5042191;28;20290;-69
2021/04/12 04:13:51;;;;;;;10.57;6.40;;;;;;;;;;5055065;28;20604;-68
2021/04/12 04:16:24;;;;;;;6.68;5.38;;;;;;;;;;5054533;28;20300;-68
2021/04/12 04:18:55;;;;;;;6.32;5.72;;;;;;;;;;5054055;28;20241;-67
2021/04/12 04:21:36;;;;;;;7.88;6.28;;;;;;;;;;5054489;28;20187;-68
2021/04/12 04:24:17;;;;;;;6.38;5.53;;;;;;;;;;5055361;28;20273;-68
2021/04/12 04:26:59;;;;;;;9.35;6.22;;;;;;;;;;5055170;28;20197;-68
2021/04/12 04:29:37;;;;;;;6.43;5.72;;;;;;;;;;5061608;28;20315;-67
2021/04/12 04:32:15;;;;;;;8.48;5.95;;;;;;;;;;5074538;28;20289;-67
2021/04/12 04:35:00;;;;;;;9.57;6.15;;;;;;;;;;5074702;28;20655;-67
2021/04/12 04:37:44;;;;;;;8.65;5.68;;;;;;;;;;5074049;28;20248;-67
2021/04/12 04:40:19;;;;;;;6.88;5.60;;;;;;;;;;5074499;28;20327;-67
2021/04/12 04:43:01;;;;;;;13.43;7.18;;;;;;;;;;5074250;28;20628;-68
2021/04/12 04:45:33;;;;;;;8.02;6.50;;;;;;;;;;5073771;28;20640;-66
2021/04/12 04:48:08;;;;;;;7.88;5.88;;;;;;;;;;5075059;28;20269;-66
2021/04/12 04:50:46;;;;;;;8.52;6.00;;;;;;;;;;5073886;28;20273;-67
2021/04/12 04:53:25;;;;;;;8.73;6.63;;;;;;;;;;5074655;28;20213;-67
2021/04/12 04:55:57;;;;;;;11.43;6.18;;;;;;;;;;5074424;28;20293;-67
2021/04/12 04:58:30;;;;;;;11.88;6.30;;;;;;;;;;5074825;28;20183;-67
2021/04/12 05:01:09;;;;;;;10.27;6.35;;;;;;;;;;5073529;28;20190;-67
2021/04/12 05:03:54;;;;;;;8.20;7.40;;;;;;;;;;5073678;28;20269;-68
2021/04/12 05:06:41;;;;;;;14.43;6.88;;;;;;;;;;5073976;28;20225;-67
2021/04/12 05:09:27;;;;;;;8.52;6.30;;;;;;;;;;5074284;28;20288;-68
2021/04/12 05:12:21;;;;;;;7.38;6.65;;;;;;;;;;5073678;28;20194;-67
2021/04/12 05:15:08;;;;;;;10.95;6.68;;;;;;;;;;5074010;28;20265;-67
2021/04/12 05:17:50;;;;;;;10.63;5.90;;;;;;;;;;5056142;28;20659;-67
2021/04/12 05:20:24;;;;;;;7.10;6.13;;;;;;;;;;5073483;28;20273;-68
2021/04/12 05:23:09;;;;;;;9.10;6.13;;;;;;;;;;5074495;28;20190;-67
2021/04/12 05:25:53;;;;;;;6.85;6.15;;;;;;;;;;5073480;28;20659;-69
2021/04/12 05:28:38;;;;;;;13.85;6.72;;;;;;;;;;5052229;28;20281;-68
2021/04/12 05:31:20;;;;;;;14.68;7.20;;;;;;;;;;5073896;28;20611;-68
2021/04/12 05:34:05;;;;;;;11.23;5.90;;;;;;;;;;5073751;28;20549;-67
2021/04/12 05:36:43;;;;;;;11.70;7.00;;;;;;;;;;5072983;28;20689;-68
2021/04/12 05:39:19;;;;;;;11.27;7.47;;;;;;;;;;5071532;28;20194;-67
2021/04/12 05:41:52;;;;;;;9.70;7.03;;;;;;;;;;5072775;28;20208;-69
2021/04/12 05:44:30;;;;;;;16.02;7.75;;;;;;;;;;5073114;28;20179;-70
2021/04/12 05:47:03;;;;;;;9.85;7.47;;;;;;;;;;5072456;28;20785;-65
2021/04/12 05:49:41;;;;;;;11.68;6.40;;;;;;;;;;5073140;28;20222;-65
2021/04/12 05:52:17;;;;;;;10.73;6.60;;;;;;;;;;5073089;28;20225;-65
2021/04/12 05:54:52;;;;;;;11.73;7.20;;;;;;;;;;5073395;28;20251;-65
2021/04/12 05:57:49;;;;;;;13.38;7.30;;;;;;;;;;5073475;28;20213;-64
2021/04/12 06:00:21;;;;;;;8.77;6.03;;;;;;;;;;5031064;28;20277;-65
2021/04/12 06:03:03;;;;;;;7.78;6.80;;;;;;;;;;5065119;28;20284;-65
2021/04/12 06:05:32;;;;;;;9.23;7.10;;;;;;;;;;5071514;28;20209;-65
2021/04/12 06:08:13;;;;;;;10.65;7.25;;;;;;;;;;5073174;28;20226;-66
2021/04/12 06:10:55;;;;;;;8.32;6.45;;;;;;;;;;5072925;28;20193;-66
2021/04/12 06:13:36;;;;;;;11.13;7.05;;;;;;;;;;5064121;28;20236;-65
2021/04/12 06:16:14;;;;;;;7.18;6.47;;;;;;;;;;5073485;28;20220;-65
2021/04/12 06:18:59;;;;;;;9.10;6.45;;;;;;;;;;5073530;28;20190;-65
2021/04/12 06:21:30;;;;;;;9.02;6.50;;;;;;;;;;5072670;28;20201;-65
2021/04/12 06:23:59;;;;;;;16.38;6.30;;;;;;;;;;5073212;28;20308;-65
2021/04/12 06:26:56;;;;;;;7.00;6.10;;;;;;;;;;5072697;28;20198;-66
2021/04/12 06:29:37;;;;;;;11.02;6.93;;;;;;;;;;5073370;28;20261;-66
2021/04/12 06:32:23;;;;;;;7.82;5.50;;;;;;;;;;5072744;28;20655;-65
2021/04/12 06:35:22;;;;;;;10.18;6.60;;;;;;;;;;5073037;28;20221;-66
2021/04/12 06:37:59;;;;;;;11.73;6.82;;;;;;;;;;5074077;28;20301;-66
2021/04/12 06:40:44;;;;;;;11.80;6.28;;;;;;;;;;5072969;28;20263;-66
2021/04/12 06:43:28;;;;;;;15.57;6.40;;;;;;;;;;5055592;28;20199;-66
2021/04/12 06:46:29;;;;;;;7.93;6.47;;;;;;;;;;5076797;28;20275;-65
2021/04/12 06:49:14;;;;;;;12.43;5.88;;;;;;;;;;5077077;28;20217;-66
2021/04/12 06:52:12;;;;;;;8.32;6.28;;;;;;;;;;5076685;28;20664;-66
2021/04/12 06:54:46;;;;;;;9.82;6.05;;;;;;;;;;5076660;28;20274;-66
2021/04/12 06:57:27;;;;;;;9.15;6.82;;;;;;;;;;5076920;28;20293;-66
2021/04/12 07:00:14;;;;;;;8.25;6.15;;;;;;;;;;5076576;28;20186;-66
2021/04/12 07:03:05;;;;;;;6.78;6.07;;;;;;;;;;5076008;28;20612;-65
2021/04/12 07:05:45;;;;;;;10.93;5.60;;;;;;;;;;5037822;28;20559;-65
2021/04/12 07:08:21;;;;;;;13.50;6.97;;;;;;;;;;5076152;28;20262;-66
2021/04/12 07:11:06;;;;;;;8.48;6.82;;;;;;;;;;5076591;28;20636;-66
2021/04/12 07:13:57;;;;;;;12.80;7.72;;;;;;;;;;5075570;28;20201;-65
2021/04/12 07:16:32;;;;;;;11.43;6.43;;;;;;;;;;5076005;28;20218;-66
2021/04/12 07:19:15;;;;;;;12.10;6.93;;;;;;;;;;5075648;28;20667;-66
2021/04/12 07:21:56;;;;;;;9.20;6.53;;;;;;;;;;5075530;28;20240;-66
2021/04/12 07:24:46;;;;;;;9.88;6.57;;;;;;;;;;5075703;28;20196;-67
2021/04/12 07:27:40;;;;;;;11.55;5.60;;;;;;;;;;5076095;28;20599;-65
2021/04/12 07:30:20;;;;;;;9.23;6.35;;;;;;;;;;5075584;28;20189;-67
2021/04/12 07:33:14;;;;;;;12.95;6.18;;;;;;;;;;5075430;28;20652;-65
2021/04/12 07:36:03;;;;;;;9.75;6.55;;;;;;;;;;5051444;28;20244;-66
2021/04/12 07:38:48;;;;;;;9.80;6.00;;;;;;;;;;5075507;28;20644;-65
2021/04/12 07:41:40;;;;;;;8.00;6.75;;;;;;;;;;5069026;28;20709;-66
2021/04/12 07:44:31;;;;;;;8.38;6.15;;;;;;;;;;5078224;28;20182;-67
2021/04/12 07:47:17;;;;;;;8.82;6.63;;;;;;;;;;5078282;28;20257;-66
2021/04/12 07:49:58;;;;;;;6.97;5.93;;;;;;;;;;5075763;28;20230;-65
2021/04/12 07:52:41;;;;;;;8.10;5.28;;;;;;;;;;5074944;28;20182;-65
2021/04/12 07:55:20;;;;;;;6.15;5.50;;;;;;;;;;5076090;28;20610;-65
2021/04/12 07:58:05;;;;;;;13.85;5.90;;;;;;;;;;5076838;28;20293;-65
2021/04/12 08:00:55;;;;;;;11.25;5.10;;;;;;;;;;5076107;28;20194;-65
2021/04/12 08:03:41;;;;;;;6.30;4.75;;;;;;;;;;5075416;28;20186;-65
2021/04/12 08:06:25;;;;;;;7.60;5.68;;;;;;;;;;5075097;28;20198;-65
2021/04/12 08:09:08;;;;;;;7.55;5.03;;;;;;;;;;5074653;28;20187;-66
2021/04/12 08:11:53;;;;;;;5.80;4.13;;;;;;;;;;5075019;28;20278;-66
2021/04/12 08:14:35;;;;;;;4.40;4.00;;;;;;;;;;5074504;28;20195;-66
2021/04/12 08:17:16;;;;;;;4.32;3.55;;;;;;;;;;5075135;28;20206;-66
2021/04/12 08:20:04;;;;;;;5.95;3.17;;;;;;;;;;5074428;28;20270;-65
2021/04/12 08:22:51;;;;;;;6.50;3.35;;;;;;;;;;5071466;28;20233;-67
2021/04/12 08:25:37;;;;;;;3.13;2.60;;;;;;;;;;5075129;28;20266;-66
2021/04/12 08:28:26;;;;;;;2.40;2.00;;;;;;;;;;5074578;28;20202;-66
2021/04/12 08:31:24;;;;;;;3.20;2.22;;;;;;;;;;5074212;28;20270;-66
2021/04/12 08:34:17;;;;;;;2.85;2.50;;;;;;;;;;5074851;28;20245;-67
2021/04/12 08:36:52;;;;;;;4.95;2.65;;;;;;;;;;5049855;28;20305;-67
2021/04/12 08:39:36;;;;;;;5.50;2.65;;;;;;;;;;5074383;28;20347;-66
2021/04/12 08:42:18;;;;;;;8.00;3.47;;;;;;;;;;5074240;28;20332;-66
2021/04/12 08:44:59;;;;;;;6.05;3.22;;;;;;;;;;5075063;28;20206;-66
2021/04/12 08:47:42;;;;;;;3.28;2.97;;;;;;;;;;5075693;28;20227;-66
2021/04/12 08:50:33;;;;;;;2.88;2.47;;;;;;;;;;5073858;28;20218;-66
2021/04/12 08:53:11;;;;;;;9.60;2.65;;;;;;;;;;5074277;28;20652;-66
2021/04/12 08:56:05;;;;;;;6.18;2.90;;;;;;;;;;5074091;28;20218;-66
2021/04/12 08:58:57;;;;;;;6.60;3.70;;;;;;;;;;5074716;28;20592;-66
2021/04/12 09:01:33;;;;;;;3.92;2.38;;;;;;;;;;5073748;28;20245;-67
2021/04/12 09:04:20;;;;;;;2.53;2.17;;;;;;;;;;5074125;28;20178;-67
2021/04/12 09:07:05;;;;;;;3.00;2.80;;;;;;;;;;5073520;28;20234;-66
2021/04/12 09:09:47;;;;;;;8.55;2.30;;;;;;;;;;5073425;28;20231;-66
2021/04/12 09:12:35;;;;;;;3.05;2.75;;;;;;;;;;5073682;28;20237;-66
2021/04/12 09:15:26;;;;;;;3.25;1.85;;;;;;;;;;5073547;28;20274;-66
2021/04/12 09:17:59;;;;;;;5.07;2.33;;;;;;;;;;5073361;28;20242;-66
2021/04/12 09:20:31;;;;;;;3.85;2.00;;;;;;;;;;5073987;28;20202;-67
2021/04/12 09:23:14;;;;;;;2.50;2.10;;;;;;;;;;5073596;28;20248;-66
2021/04/12 09:26:05;;;;;;;2.28;1.70;;;;;;;;;;5074373;28;20570;-66
2021/04/12 09:28:49;;;;;;;4.47;1.95;;;;;;;;;;5035168;28;20196;-66
2021/04/12 09:31:27;;;;;;;1.70;1.60;;;;;;;;;;5074175;28;20193;-66
2021/04/12 09:34:04;;;;;;;1.52;1.40;;;;;;;;;;5073284;28;20269;-67
2021/04/12 09:37:02;;;;;;;2.38;1.42;;;;;;;;;;5074286;28;20213;-67
2021/04/12 09:39:36;;;;;;;2.30;1.60;;;;;;;;;;5073729;28;20610;-66
2021/04/12 09:42:22;;;;;;;3.83;1.52;;;;;;;;;;5073542;28;20585;-66
2021/04/12 09:45:03;;;;;;;4.95;1.85;;;;;;;;;;5073420;28;20194;-66
2021/04/12 09:47:48;;;;;;;1.50;1.40;;;;;;;;;;5074095;28;20262;-67
2021/04/12 09:50:30;;;;;;;1.92;1.80;;;;;;;;;;5073090;28;20278;-67
2021/04/12 09:53:03;;;;;;;3.25;1.88;;;;;;;;;;5073785;28;20256;-66
2021/04/12 09:55:51;;;;;;;3.88;1.80;;;;;;;;;;5073863;28;20222;-66
2021/04/12 09:58:53;;;;;;;9.45;1.58;;;;;;;;;;5073684;28;20209;-67
2021/04/12 10:01:21;;;;;;;3.53;1.90;;;;;;;;;;5073535;28;20188;-67
2021/04/12 10:03:54;;;;;;;7.18;1.98;;;;;;;;;;5073401;28;20552;-67
2021/04/12 10:06:36;;;;;;;3.97;1.70;;;;;;;;;;5072996;28;20284;-67
2021/04/12 10:09:17;;;;;;;2.30;2.10;;;;;;;;;;5073154;28;20225;-66
2021/04/12 10:11:47;;;;;;;5.50;1.90;;;;;;;;;;5050521;28;20234;-67
2021/04/12 10:14:16;;;;;;;1.70;1.60;;;;;;;;;;5073168;28;20283;-66
2021/04/12 10:16:45;;;;;;;2.63;1.88;;;;;;;;;;5075509;28;20331;-67
2021/04/12 10:19:16;;;;;;;3.45;1.40;;;;;;;;;;5077424;28;20285;-68
2021/04/12 10:21:46;;;;;;;1.90;1.80;;;;;;;;;;5077827;28;20192;-67
2021/04/12 10:24:17;;;;;;;3.65;2.22;;;;;;;;;;5076984;28;20274;-66
2021/04/12 10:26:45;;;;;;;4.78;2.08;;;;;;;;;;5076538;28;20238;-67
2021/04/12 10:29:15;;;;;;;4.07;2.53;;;;;;;;;;5077589;28;20230;-67
2021/04/12 10:31:44;;;;;;;2.08;1.65;;;;;;;;;;5076790;28;20186;-66
2021/04/12 10:34:25;;;;;;;1.80;1.70;;;;;;;;;;5076745;28;20268;-66
2021/04/12 10:36:59;;;;;;;7.05;2.22;;;;;;;;;;5077128;28;20242;-66
2021/04/12 10:39:43;;;;;;;3.30;2.20;;;;;;;;;;5076272;28;20186;-66
2021/04/12 10:42:19;;;;;;;4.40;2.22;;;;;;;;;;5076456;28;20737;-66
2021/04/12 10:44:50;;;;;;;2.08;1.60;;;;;;;;;;5076326;28;20636;-67
2021/04/12 10:47:20;;;;;;;3.40;2.75;;;;;;;;;;5076723;28;20317;-66
2021/04/12 10:49:53;;;;;;;1.75;1.63;;;;;;;;;;5076186;28;20194;-66
2021/04/12 10:52:22;;;;;;;3.10;2.22;;;;;;;;;;5076791;28;20246;-67
2021/04/12 10:54:57;;;;;;;3.67;1.77;;;;;;;;;;5076450;28;20230;-66
2021/04/12 10:57:33;;;;;;;5.70;2.13;;;;;;;;;;5076388;28;20556;-66
2021/04/12 11:00:33;;;;;;;4.85;1.65;;;;;;;;;;5076541;28;20297;-66
2021/04/12 11:03:17;;;;;;;3.55;2.00;;;;;;;;;;5076470;28;20190;-66
2021/04/12 11:05:46;;;;;;;2.10;2.00;;;;;;;;;;5076006;28;20273;-67
2021/04/12 11:08:23;;;;;;;3.15;1.88;;;;;;;;;;5076143;28;20633;-67
2021/04/12 11:10:59;;;;;;;1.88;1.50;;;;;;;;;;5076073;28;20191;-67
2021/04/12 11:13:31;;;;;;;3.72;1.70;;;;;;;;;;5075921;28;20668;-67
2021/04/12 11:16:16;;;;;;;4.75;2.30;;;;;;;;;;5076007;28;20180;-67
2021/04/12 11:18:49;;;;;;;1.63;1.50;;;;;;;;;;5075527;28;20183;-67
2021/04/12 11:21:21;;;;;;;2.50;2.30;;;;;;;;;;5076464;28;20207;-67
2021/04/12 11:23:54;;;;;;;1.83;1.60;;;;;;;;;;5075817;28;20187;-67
2021/04/12 11:26:24;;;;;;;2.03;1.92;;;;;;;;;;5075552;28;20270;-67
2021/04/12 11:28:53;;;;;;;3.30;2.03;;;;;;;;;;5076111;28;20562;-67
2021/04/12 11:31:23;;;;;;;1.83;1.73;;;;;;;;;;5075199;28;20285;-67
2021/04/12 11:34:07;;;;;;;3.72;1.70;;;;;;;;;;5075242;28;20243;-68
2021/04/12 11:36:51;;;;;;;1.83;1.73;;;;;;;;;;5075114;28;20721;-67
2021/04/12 11:39:19;;;;;;;4.15;1.92;;;;;;;;;;5075435;28;20524;-66
2021/04/12 11:41:50;;;;;;;1.70;1.60;;;;;;;;;;5075551;28;20609;-67
2021/04/12 11:44:19;;;;;;;3.40;1.80;;;;;;;;;;5075355;28;20712;-66
2021/04/12 11:46:59;;;;;;;1.40;1.30;;;;;;;;;;5075383;28;20234;-66
2021/04/12 11:49:30;;;;;;;1.30;1.20;;;;;;;;;;5075378;28;20184;-69
2021/04/12 11:52:01;;;;;;;3.90;2.10;;;;;;;;;;5075052;28;20234;-67
2021/04/12 11:54:43;;;;;;;1.75;1.65;;;;;;;;;;5075389;28;20271;-66
2021/04/12 11:57:17;;;;;;;1.58;1.48;;;;;;;;;;5074777;28;20221;-67
2021/04/12 11:59:47;;;;;;;1.75;1.55;;;;;;;;;;5075064;28;20189;-68
2021/04/12 12:02:19;;;;;;;2.95;1.60;;;;;;;;;;5074890;28;20238;-67
2021/04/12 12:04:48;;;;;;;1.70;1.60;;;;;;;;;;5074985;28;20195;-67
2021/04/12 12:07:28;;;;;;;3.40;3.10;;;;;;;;;;5074595;28;20208;-68
2021/04/12 12:10:02;;;;;;;2.10;1.90;;;;;;;;;;5075312;28;20187;-67
2021/04/12 12:12:34;;;;;;;5.00;2.40;;;;;;;;;;5075284;28;20198;-66
2021/04/12 12:15:10;;;;;;;2.05;1.85;;;;;;;;;;5074432;28;20180;-67
2021/04/12 12:17:39;;;;;;;2.42;2.30;;;;;;;;;;5074343;28;20734;-67
2021/04/12 12:20:11;;;;;;;6.65;2.85;;;;;;;;;;5074890;28;20628;-66
2021/04/12 12:22:48;;;;;;;3.47;2.00;;;;;;;;;;5074927;28;20220;-67
2021/04/12 12:25:19;;;;;;;11.25;3.47;;;;;;;;;;5074336;28;20225;-67
2021/04/12 12:27:56;;;;;;;3.65;2.20;;;;;;;;;;5074667;28;20544;-67
2021/04/12 12:30:27;;;;;;;2.35;2.25;;;;;;;;;;5074299;28;20771;-66
2021/04/12 12:32:59;;;;;;;3.83;2.47;;;;;;;;;;5075179;28;20264;-67
2021/04/12 12:35:33;;;;;;;2.80;2.60;;;;;;;;;;5074759;28;20187;-67
2021/04/12 12:38:15;;;;;;;2.63;2.42;;;;;;;;;;5074165;28;20212;-66
2021/04/12 12:40:48;;;;;;;2.92;2.58;;;;;;;;;;5073086;28;20736;-66
2021/04/12 12:43:18;;;;;;;3.30;3.10;;;;;;;;;;5074763;28;20285;-75
2021/04/12 12:45:45;;;;;;;2.08;1.92;;;;;;;;;;5074412;28;20199;-70
2021/04/12 12:48:14;;;;;;;2.47;2.28;;;;;;;;;;5074240;28;20540;-70
2021/04/12 12:50:45;;;;;;;2.75;2.22;;;;;;;;;;5073935;28;20703;-70
2021/04/12 12:53:15;;;;;;;2.33;1.75;;;;;;;;;;5074284;28;20260;-69
2021/04/12 12:55:45;;;;;;;2.25;2.10;;;;;;;;;;5073704;28;20202;-69
2021/04/12 12:58:17;;;;;;;1.80;1.70;;;;;;;;;;5074427;28;20214;-69
2021/04/12 13:00:45;;;;;;;2.63;2.40;;;;;;;;;;5074157;28;20234;-69
2021/04/12 13:03:17;;;;;;;5.70;2.40;;;;;;;;;;5074071;28;20199;-69
2021/04/12 13:05:45;;;;;;;2.67;2.38;;;;;;;;;;5068998;28;20197;-69
2021/04/12 13:08:13;;;;;;;1.88;1.77;;;;;;;;;;5064695;28;20687;-70
2021/04/12 13:10:41;;;;;;;3.65;2.13;;;;;;;;;;5056282;28;20211;-69
2021/04/12 13:13:16;;;;;;;4.45;2.38;;;;;;;;;;5054884;28;20734;-69
2021/04/12 13:15:43;;;;;;;2.92;2.15;;;;;;;;;;5054463;28;20670;-69
2021/04/12 13:18:12;;;;;;;4.88;2.30;;;;;;;;;;5054013;28;20246;-69
2021/04/12 13:20:41;;;;;;;3.25;2.28;;;;;;;;;;5053451;28;20205;-69
2021/04/12 13:23:13;;;;;;;2.55;2.30;;;;;;;;;;5053562;28;20202;-69
2021/04/12 13:25:42;;;;;;;4.65;2.45;;;;;;;;;;5054067;28;20277;-69
2021/04/12 13:28:13;;;;;;;3.20;2.60;;;;;;;;;;5053524;28;20207;-68
2021/04/12 13:30:42;;;;;;;3.08;1.85;;;;;;;;;;5053823;28;20184;-68
2021/04/12 13:33:11;;;;;;;2.67;2.33;;;;;;;;;;5053125;28;20292;-68
2021/04/12 13:35:41;;;;;;;3.28;2.20;;;;;;;;;;5052954;28;20651;-68
2021/04/12 13:38:10;;;;;;;2.17;2.03;;;;;;;;;;5052949;28;20216;-68
2021/04/12 13:40:39;;;;;;;2.53;2.33;;;;;;;;;;5053326;28;20195;-68
2021/04/12 13:43:07;;;;;;;2.53;2.33;;;;;;;;;;5053784;28;20693;-67
2021/04/12 13:45:35;;;;;;;4.70;2.50;;;;;;;;;;5052813;28;20199;-67
2021/04/12 13:48:05;;;;;;;2.95;2.75;;;;;;;;;;5053409;28;20224;-68
2021/04/12 13:50:33;;;;;;;2.20;2.10;;;;;;;;;;5057026;28;20191;-68
2021/04/12 13:53:03;;;;;;;3.85;2.40;;;;;;;;;;5059809;28;20209;-69
2021/04/12 13:55:32;;;;;;;2.85;2.50;;;;;;;;;;5060053;28;20191;-67
2021/04/12 13:58:01;;;;;;;2.70;2.60;;;;;;;;;;5060065;28;20309;-68
2021/04/12 14:00:30;;;;;;;2.80;2.35;;;;;;;;;;5059894;28;20195;-67
2021/04/12 14:03:00;;;;;;;2.40;2.10;;;;;;;;;;5059709;28;20192;-67
2021/04/12 14:05:28;;;;;;;5.10;2.30;;;;;;;;;;5059085;28;20648;-68
2021/04/12 14:08:02;;;;;;;3.60;3.30;;;;;;;;;;5059288;28;20199;-69
2021/04/12 14:10:37;;;;;;;3.40;3.20;;;;;;;;;;5059370;28;20366;-68
2021/04/12 14:13:07;;;;;;;4.30;3.20;;;;;;;;;;5060235;28;20230;-68
2021/04/12 14:15:42;;;;;;;4.25;3.42;;;;;;;;;;5059946;28;20657;-68
2021/04/12 14:18:09;;;;;;;4.30;3.90;;;;;;;;;;5060070;28;20301;-68
2021/04/12 14:20:39;;;;;;;2.80;2.60;;;;;;;;;;5059546;28;20282;-70
2021/04/12 14:23:13;;;;;;;4.28;3.75;;;;;;;;;;5059732;28;20586;-70
2021/04/12 14:25:41;;;;;;;5.18;4.68;;;;;;;;;;5060061;28;20229;-69
2021/04/12 14:28:09;;;;;;;4.20;3.90;;;;;;;;;;5059356;28;20206;-68
2021/04/12 14:30:42;;;;;;;3.50;3.30;;;;;;;;;;5059723;28;20202;-69
2021/04/12 14:33:09;;;;;;;5.95;4.43;;;;;;;;;;5059883;28;20193;-69
2021/04/12 14:35:39;;;;;;;4.40;3.30;;;;;;;;;;5059135;28;20289;-68
2021/04/12 14:38:08;;;;;;;4.45;4.15;;;;;;;;;;5059539;28;20215;-68
2021/04/12 14:40:35;;;;;;;11.43;5.03;;;;;;;;;;5059629;28;20256;-68
2021/04/12 14:43:04;;;;;;;4.35;4.05;;;;;;;;;;5059684;28;20245;-68
2021/04/12 14:45:34;;;;;;;5.47;4.47;;;;;;;;;;5059301;28;20285;-68
2021/04/12 14:48:05;;;;;;;4.03;3.60;;;;;;;;;;5059627;28;20227;-67
2021/04/12 14:50:33;;;;;;;6.80;4.30;;;;;;;;;;5060146;28;20184;-67
2021/04/12 14:53:03;;;;;;;4.05;3.65;;;;;;;;;;5059797;28;20277;-67
2021/04/12 14:55:33;;;;;;;4.30;3.97;;;;;;;;;;5059838;28;20214;-67
2021/04/12 14:58:14;;;;;;;4.47;3.70;;;;;;;;;;5059471;28;20312;-68
2021/04/12 15:00:44;;;;;;;4.18;3.70;;;;;;;;;;5059598;28;20203;-67
2021/04/12 15:03:14;;;;;;;4.00;3.70;;;;;;;;;;5055485;28;20282;-67
2021/04/12 15:05:42;;;;;;;4.57;3.80;;;;;;;;;;5055903;28;20201;-67
2021/04/12 15:08:12;;;;;;;4.32;3.47;;;;;;;;;;5055717;28;20205;-67
2021/04/12 15:10:42;;;;;;;5.75;4.05;;;;;;;;;;5056316;28;20212;-67
2021/04/12 15:13:10;;;;;;;5.55;3.00;;;;;;;;;;5055649;28;20654;-67
2021/04/12 15:15:39;;;;;;;4.20;3.80;;;;;;;;;;5055895;28;20201;-67
2021/04/12 15:18:10;;;;;;;4.18;3.78;;;;;;;;;;5055482;28;20247;-67
2021/04/12 15:20:40;;;;;;;3.67;3.38;;;;;;;;;;5055802;28;20555;-66
2021/04/12 15:23:13;;;;;;;5.07;4.60;;;;;;;;;;5056259;28;20288;-66
2021/04/12 15:25:43;;;;;;;38.20;26.88;;;;;;;;;;5056235;28;20200;-66
2021/04/12 15:28:23;;;;;;;4.00;3.70;;;;;;;;;;5055642;28;20202;-66
2021/04/12 15:30:52;;;;;;;3.40;3.10;;;;;;;;;;5055863;28;20223;-65
2021/04/12 15:33:21;;;;;;;3.08;2.83;;;;;;;;;;5056334;28;20283;-66
2021/04/12 15:35:50;;;;;;;4.30;2.95;;;;;;;;;;5055641;28;20289;-65
2021/04/12 15:38:20;;;;;;;3.22;2.90;;;;;;;;;;5055017;28;20221;-66